sensor_id;sensor_type;location;lat;lon;timestamp;pressure;altitude;pressure_sealevel;temperature;humidity
30421;BME280;17218;54.070;10.012;2023-05-10T00:01:13;100659.06;;;12.90;100.00
30421;BME280;17218;54.070;10.012;2023-05-10T00:03:39;100654.72;;;12.89;100.00
30421;BME280;17218;54.070;10.012;2023-05-10T00:06:06;100646.84;;;12.94;100.00
30421;BME280;17218;54.070;10.012;2023-05-10T00:08:33;100651.41;;;12.81;100.00
30421;BME280;17218;54.070;10.012;2023-05-10T00:11:00;100660.13;;;12.78;100.00
30421;BME280;17218;54.070;10.012;2023-05-10T00:13:27;100647.16;;;12.76;100.00
30421;BME280;17218;54.070;10.012;2023-05-10T00:15:53;100651.44;;;12.79;100.00
30421;BME280;17218;54.070;10.012;2023-05-10T00:18:20;100652.31;;;12.78;100.00
30421;BME280;17218;54.070;10.012;2023-05-10T00:20:46;100641.28;;;12.65;100.00
30421;BME280;17218;54.070;10.012;2023-05-10T00:23:14;100643.03;;;12.64;100.00
30421;BME280;17218;54.070;10.012;2023-05-10T00:25:40;100637.91;;;12.60;100.00
30421;BME280;17218;54.070;10.012;2023-05-10T00:28:08;100644.28;;;12.92;100.00
30421;BME280;17218;54.070;10.012;2023-05-10T00:30:35;100641.06;;;12.79;100.00
30421;BME280;17218;54.070;10.012;2023-05-10T00:33:01;100635.09;;;12.72;100.00
30421;BME280;17218;54.070;10.012;2023-05-10T00:35:28;100641.09;;;12.76;100.00
30421;BME280;17218;54.070;10.012;2023-05-10T00:37:54;100641.13;;;12.74;100.00
30421;BME280;17218;54.070;10.012;2023-05-10T00:40:21;100632.53;;;12.71;100.00
30421;BME280;17218;54.070;10.012;2023-05-10T00:42:47;100625.69;;;12.65;100.00
30421;BME280;17218;54.070;10.012;2023-05-10T00:45:15;100626.59;;;12.64;100.00
30421;BME280;17218;54.070;10.012;2023-05-10T00:47:42;100620.47;;;12.68;100.00
30421;BME280;17218;54.070;10.012;2023-05-10T00:50:09;100626.31;;;12.78;100.00
30421;BME280;17218;54.070;10.012;2023-05-10T00:52:36;100627.34;;;12.69;100.00
30421;BME280;17218;54.070;10.012;2023-05-10T00:55:03;100625.50;;;12.78;100.00
30421;BME280;17218;54.070;10.012;2023-05-10T00:57:30;100611.78;;;12.68;100.00
30421;BME280;17218;54.070;10.012;2023-05-10T00:59:57;100619.75;;;12.58;100.00
30421;BME280;17218;54.070;10.012;2023-05-10T01:02:25;100627.81;;;12.44;100.00
30421;BME280;17218;54.070;10.012;2023-05-10T01:04:52;100618.94;;;12.55;100.00
30421;BME280;17218;54.070;10.012;2023-05-10T01:07:19;100614.69;;;12.50;100.00
30421;BME280;17218;54.070;10.012;2023-05-10T01:09:45;100616.03;;;12.73;100.00
30421;BME280;17218;54.070;10.012;2023-05-10T01:12:12;100608.56;;;12.55;100.00
30421;BME280;17218;54.070;10.012;2023-05-10T01:14:39;100611.59;;;12.79;100.00
30421;BME280;17218;54.070;10.012;2023-05-10T01:17:06;100609.03;;;12.77;100.00
30421;BME280;17218;54.070;10.012;2023-05-10T01:19:35;100608.91;;;12.85;100.00
30421;BME280;17218;54.070;10.012;2023-05-10T01:22:08;100608.84;;;12.86;100.00
30421;BME280;17218;54.070;10.012;2023-05-10T01:31:06;100614.84;;;12.43;100.00
30421;BME280;17218;54.070;10.012;2023-05-10T01:33:39;100610.19;;;12.60;100.00
30421;BME280;17218;54.070;10.012;2023-05-10T01:36:14;100610.22;;;12.59;100.00
30421;BME280;17218;54.070;10.012;2023-05-10T01:38:54;100610.09;;;12.65;100.00
30421;BME280;17218;54.070;10.012;2023-05-10T01:41:27;100612.84;;;12.56;100.00
30421;BME280;17218;54.070;10.012;2023-05-10T01:46:39;100606.19;;;12.42;100.00
30421;BME280;17218;54.070;10.012;2023-05-10T01:49:09;100612.56;;;12.21;100.00
30421;BME280;17218;54.070;10.012;2023-05-10T01:51:40;100606.69;;;12.09;100.00
30421;BME280;17218;54.070;10.012;2023-05-10T01:54:12;100605.09;;;11.99;100.00
30421;BME280;17218;54.070;10.012;2023-05-10T01:56:40;100598.09;;;12.05;100.00
30421;BME280;17218;54.070;10.012;2023-05-10T01:59:11;100604.09;;;12.08;100.00
30421;BME280;17218;54.070;10.012;2023-05-10T02:01:39;100609.19;;;12.15;100.00
30421;BME280;17218;54.070;10.012;2023-05-10T02:04:08;100606.50;;;12.22;100.00
30421;BME280;17218;54.070;10.012;2023-05-10T02:06:36;100607.38;;;12.21;100.00
30421;BME280;17218;54.070;10.012;2023-05-10T02:09:05;100602.34;;;12.13;100.00
30421;BME280;17218;54.070;10.012;2023-05-10T02:11:32;100602.63;;;11.92;100.00
30421;BME280;17218;54.070;10.012;2023-05-10T02:14:00;100603.94;;;11.59;100.00
30421;BME280;17218;54.070;10.012;2023-05-10T02:16:27;100596.31;;;11.48;100.00
30421;BME280;17218;54.070;10.012;2023-05-10T02:18:57;100601.53;;;11.43;100.00
30421;BME280;17218;54.070;10.012;2023-05-10T02:21:27;100603.38;;;11.36;100.00
30421;BME280;17218;54.070;10.012;2023-05-10T02:23:55;100607.69;;;11.36;100.00
30421;BME280;17218;54.070;10.012;2023-05-10T02:26:24;100602.50;;;11.37;100.00
30421;BME280;17218;54.070;10.012;2023-05-10T02:28:51;100606.63;;;11.51;100.00
30421;BME280;17218;54.070;10.012;2023-05-10T02:31:20;100596.41;;;11.40;100.00
30421;BME280;17218;54.070;10.012;2023-05-10T02:33:48;100601.59;;;11.40;100.00
30421;BME280;17218;54.070;10.012;2023-05-10T02:36:15;100597.47;;;11.23;100.00
30421;BME280;17218;54.070;10.012;2023-05-10T02:38:44;100598.47;;;11.13;100.00
30421;BME280;17218;54.070;10.012;2023-05-10T02:41:12;100594.28;;;11.01;100.00
30421;BME280;17218;54.070;10.012;2023-05-10T02:43:39;100591.66;;;11.02;100.00
30421;BME280;17218;54.070;10.012;2023-05-10T02:46:07;100591.66;;;11.04;100.00
30421;BME280;17218;54.070;10.012;2023-05-10T02:48:33;100596.75;;;11.10;100.00
30421;BME280;17218;54.070;10.012;2023-05-10T02:51:04;100588.13;;;11.11;100.00
30421;BME280;17218;54.070;10.012;2023-05-10T02:53:33;100588.22;;;11.03;100.00
30421;BME280;17218;54.070;10.012;2023-05-10T02:56:08;100590.00;;;10.98;100.00
30421;BME280;17218;54.070;10.012;2023-05-10T02:58:36;100585.66;;;11.02;100.00
30421;BME280;17218;54.070;10.012;2023-05-10T03:01:03;100586.59;;;10.94;100.00
30421;BME280;17218;54.070;10.012;2023-05-10T03:03:29;100589.13;;;10.97;100.00
30421;BME280;17218;54.070;10.012;2023-05-10T03:05:56;100584.84;;;10.96;100.00
30421;BME280;17218;54.070;10.012;2023-05-10T03:08:23;100578.75;;;10.99;100.00
30421;BME280;17218;54.070;10.012;2023-05-10T03:10:58;100586.59;;;10.91;100.00
30421;BME280;17218;54.070;10.012;2023-05-10T03:13:33;100584.06;;;10.87;100.00
30421;BME280;17218;54.070;10.012;2023-05-10T03:16:07;100586.72;;;10.83;100.00
30421;BME280;17218;54.070;10.012;2023-05-10T03:18:39;100582.25;;;10.93;100.00
30421;BME280;17218;54.070;10.012;2023-05-10T03:21:10;100577.88;;;11.02;100.00
30421;BME280;17218;54.070;10.012;2023-05-10T03:23:42;100578.78;;;10.96;100.00
30421;BME280;17218;54.070;10.012;2023-05-10T03:26:09;100577.06;;;10.96;100.00
30421;BME280;17218;54.070;10.012;2023-05-10T03:28:38;100583.09;;;10.95;100.00
30421;BME280;17218;54.070;10.012;2023-05-10T03:31:06;100584.84;;;10.93;100.00
30421;BME280;17218;54.070;10.012;2023-05-10T03:33:33;100589.28;;;10.82;100.00
30421;BME280;17218;54.070;10.012;2023-05-10T03:35:59;100592.78;;;10.79;100.00
30421;BME280;17218;54.070;10.012;2023-05-10T03:38:26;100585.03;;;10.79;100.00
30421;BME280;17218;54.070;10.012;2023-05-10T03:40:52;100580.78;;;10.72;100.00
30421;BME280;17218;54.070;10.012;2023-05-10T03:43:19;100586.53;;;10.97;100.00
30421;BME280;17218;54.070;10.012;2023-05-10T03:45:47;100579.00;;;10.77;100.00
30421;BME280;17218;54.070;10.012;2023-05-10T03:48:13;100584.09;;;10.85;100.00
30421;BME280;17218;54.070;10.012;2023-05-10T03:50:40;100584.22;;;10.74;100.00
30421;BME280;17218;54.070;10.012;2023-05-10T03:53:06;100584.09;;;10.85;100.00
30421;BME280;17218;54.070;10.012;2023-05-10T03:55:33;100586.81;;;10.74;100.00
30421;BME280;17218;54.070;10.012;2023-05-10T03:58:01;100587.66;;;10.73;100.00
30421;BME280;17218;54.070;10.012;2023-05-10T04:00:27;100575.56;;;10.73;100.00
30421;BME280;17218;54.070;10.012;2023-05-10T04:02:55;100578.88;;;10.88;100.00
30421;BME280;17218;54.070;10.012;2023-05-10T04:05:21;100577.19;;;10.84;100.00
30421;BME280;17218;54.070;10.012;2023-05-10T04:07:48;100573.69;;;10.88;100.00
30421;BME280;17218;54.070;10.012;2023-05-10T04:10:16;100572.00;;;10.84;100.00
30421;BME280;17218;54.070;10.012;2023-05-10T04:12:42;100567.63;;;10.91;100.00
30421;BME280;17218;54.070;10.012;2023-05-10T04:15:09;100571.88;;;10.96;100.00
30421;BME280;17218;54.070;10.012;2023-05-10T04:17:36;100570.84;;;11.10;100.00
30421;BME280;17218;54.070;10.012;2023-05-10T04:20:06;100575.16;;;11.09;100.00
30421;BME280;17218;54.070;10.012;2023-05-10T04:22:33;100580.47;;;11.02;100.00
30421;BME280;17218;54.070;10.012;2023-05-10T04:24:59;100574.34;;;11.07;100.00
30421;BME280;17218;54.070;10.012;2023-05-10T04:27:26;100572.56;;;11.11;100.00
30421;BME280;17218;54.070;10.012;2023-05-10T04:29:52;100580.16;;;11.27;100.00
30421;BME280;17218;54.070;10.012;2023-05-10T04:32:19;100575.00;;;11.24;100.00
30421;BME280;17218;54.070;10.012;2023-05-10T04:34:45;100572.47;;;11.17;100.00
30421;BME280;17218;54.070;10.012;2023-05-10T04:37:13;100586.22;;;11.26;100.00
30421;BME280;17218;54.070;10.012;2023-05-10T04:39:40;100578.47;;;11.24;100.00
30421;BME280;17218;54.070;10.012;2023-05-10T04:42:06;100574.88;;;11.35;100.00
30421;BME280;17218;54.070;10.012;2023-05-10T04:44:33;100573.94;;;11.40;100.00
30421;BME280;17218;54.070;10.012;2023-05-10T04:46:59;100576.56;;;11.36;100.00
30421;BME280;17218;54.070;10.012;2023-05-10T04:49:27;100570.34;;;11.49;100.00
30421;BME280;17218;54.070;10.012;2023-05-10T04:51:54;100563.34;;;11.54;100.00
30421;BME280;17218;54.070;10.012;2023-05-10T04:54:22;100571.25;;;11.45;100.00
30421;BME280;17218;54.070;10.012;2023-05-10T04:56:48;100574.91;;;11.33;100.00
30421;BME280;17218;54.070;10.012;2023-05-10T04:59:15;100572.25;;;11.36;100.00
30421;BME280;17218;54.070;10.012;2023-05-10T05:01:42;100579.75;;;11.56;100.00
30421;BME280;17218;54.070;10.012;2023-05-10T05:04:08;100575.50;;;11.51;100.00
30421;BME280;17218;54.070;10.012;2023-05-10T05:06:35;100582.31;;;11.58;100.00
30421;BME280;17218;54.070;10.012;2023-05-10T05:09:02;100577.13;;;11.61;100.00
30421;BME280;17218;54.070;10.012;2023-05-10T05:11:29;100584.09;;;11.57;100.00
30421;BME280;17218;54.070;10.012;2023-05-10T05:13:56;100582.13;;;11.74;100.00
30421;BME280;17218;54.070;10.012;2023-05-10T05:16:24;100582.16;;;11.69;100.00
30421;BME280;17218;54.070;10.012;2023-05-10T05:18:50;100580.25;;;11.82;100.00
30421;BME280;17218;54.070;10.012;2023-05-10T05:21:18;100578.38;;;11.92;100.00
30421;BME280;17218;54.070;10.012;2023-05-10T05:23:45;100586.00;;;12.03;100.00
30421;BME280;17218;54.070;10.012;2023-05-10T05:26:11;100584.31;;;11.99;100.00
30421;BME280;17218;54.070;10.012;2023-05-10T05:28:39;100580.72;;;12.08;100.00
30421;BME280;17218;54.070;10.012;2023-05-10T05:31:06;100576.31;;;12.16;100.00
30421;BME280;17218;54.070;10.012;2023-05-10T05:33:34;100579.66;;;12.23;100.00
30421;BME280;17218;54.070;10.012;2023-05-10T05:36:01;100584.13;;;12.14;100.00
30421;BME280;17218;54.070;10.012;2023-05-10T05:38:28;100581.88;;;12.45;100.00
30421;BME280;17218;54.070;10.012;2023-05-10T05:40:54;100586.88;;;12.57;100.00
30421;BME280;17218;54.070;10.012;2023-05-10T05:43:21;100584.41;;;12.49;100.00
30421;BME280;17218;54.070;10.012;2023-05-10T05:45:49;100587.75;;;12.56;100.00
30421;BME280;17218;54.070;10.012;2023-05-10T05:48:15;100585.91;;;12.61;100.00
30421;BME280;17218;54.070;10.012;2023-05-10T05:50:42;100578.72;;;12.78;100.00
30421;BME280;17218;54.070;10.012;2023-05-10T05:53:08;100587.19;;;12.86;100.00
30421;BME280;17218;54.070;10.012;2023-05-10T05:55:35;100594.88;;;12.92;100.00
30421;BME280;17218;54.070;10.012;2023-05-10T05:58:01;100581.53;;;13.09;100.00
30421;BME280;17218;54.070;10.012;2023-05-10T06:00:28;100588.34;;;13.15;100.00
30421;BME280;17218;54.070;10.012;2023-05-10T06:02:56;100588.91;;;13.31;100.00
30421;BME280;17218;54.070;10.012;2023-05-10T06:05:22;100589.09;;;13.22;100.00
30421;BME280;17218;54.070;10.012;2023-05-10T06:07:49;100583.03;;;13.21;100.00
30421;BME280;17218;54.070;10.012;2023-05-10T06:10:15;100582.88;;;13.29;100.00
30421;BME280;17218;54.070;10.012;2023-05-10T06:12:42;100585.56;;;13.24;100.00
30421;BME280;17218;54.070;10.012;2023-05-10T06:15:09;100589.91;;;13.26;100.00
30421;BME280;17218;54.070;10.012;2023-05-10T06:17:36;100592.19;;;13.40;100.00
30421;BME280;17218;54.070;10.012;2023-05-10T06:20:06;100588.84;;;13.34;100.00
30421;BME280;17218;54.070;10.012;2023-05-10T06:22:33;100596.28;;;13.50;100.00
30421;BME280;17218;54.070;10.012;2023-05-10T06:24:59;100588.75;;;13.38;100.00
30421;BME280;17218;54.070;10.012;2023-05-10T06:27:27;100593.53;;;13.59;100.00
30421;BME280;17218;54.070;10.012;2023-05-10T06:29:53;100594.34;;;13.62;100.00
30421;BME280;17218;54.070;10.012;2023-05-10T06:32:20;100591.41;;;13.77;100.00
30421;BME280;17218;54.070;10.012;2023-05-10T06:34:47;100585.16;;;13.85;100.00
30421;BME280;17218;54.070;10.012;2023-05-10T06:37:15;100587.38;;;14.00;100.00
30421;BME280;17218;54.070;10.012;2023-05-10T06:39:41;100591.19;;;13.87;100.00
30421;BME280;17218;54.070;10.012;2023-05-10T06:42:08;100590.44;;;13.81;100.00
30421;BME280;17218;54.070;10.012;2023-05-10T06:44:34;100599.00;;;13.87;100.00
30421;BME280;17218;54.070;10.012;2023-05-10T06:47:01;100587.00;;;13.81;100.00
30421;BME280;17218;54.070;10.012;2023-05-10T06:49:27;100597.31;;;13.84;100.00
30421;BME280;17218;54.070;10.012;2023-05-10T06:51:55;100599.00;;;13.87;100.00
30421;BME280;17218;54.070;10.012;2023-05-10T06:54:23;100592.06;;;13.86;100.00
30421;BME280;17218;54.070;10.012;2023-05-10T06:56:49;100593.03;;;13.83;100.00
30421;BME280;17218;54.070;10.012;2023-05-10T06:59:15;100598.88;;;13.91;100.00
30421;BME280;17218;54.070;10.012;2023-05-10T07:01:44;100592.75;;;13.94;100.00
30421;BME280;17218;54.070;10.012;2023-05-10T07:04:10;100593.41;;;14.02;100.00
30421;BME280;17218;54.070;10.012;2023-05-10T07:06:38;100590.59;;;14.12;100.00
30421;BME280;17218;54.070;10.012;2023-05-10T07:09:04;100598.41;;;14.12;100.00
30421;BME280;17218;54.070;10.012;2023-05-10T07:11:32;100600.13;;;14.13;100.00
30421;BME280;17218;54.070;10.012;2023-05-10T07:13:58;100591.56;;;14.07;100.00
30421;BME280;17218;54.070;10.012;2023-05-10T07:16:25;100603.44;;;14.19;100.00
30421;BME280;17218;54.070;10.012;2023-05-10T07:18:51;100600.13;;;14.13;100.00
30421;BME280;17218;54.070;10.012;2023-05-10T07:21:18;100599.88;;;14.22;100.00
30421;BME280;17218;54.070;10.012;2023-05-10T07:23:45;100598.91;;;14.26;100.00
30421;BME280;17218;54.070;10.012;2023-05-10T07:26:11;100597.81;;;14.37;100.00
30421;BME280;17218;54.070;10.012;2023-05-10T07:28:39;100595.84;;;14.45;100.00
30421;BME280;17218;54.070;10.012;2023-05-10T07:31:05;100593.00;;;14.54;100.00
30421;BME280;17218;54.070;10.012;2023-05-10T07:33:32;100598.13;;;14.58;100.00
30421;BME280;17218;54.070;10.012;2023-05-10T07:35:58;100599.47;;;14.73;100.00
30421;BME280;17218;54.070;10.012;2023-05-10T07:38:25;100591.56;;;14.76;100.00
30421;BME280;17218;54.070;10.012;2023-05-10T07:40:52;100596.81;;;14.74;100.00
30421;BME280;17218;54.070;10.012;2023-05-10T07:43:18;100603.16;;;14.65;100.00
30421;BME280;17218;54.070;10.012;2023-05-10T07:45:46;100591.34;;;14.85;100.00
30421;BME280;17218;54.070;10.012;2023-05-10T07:48:12;100598.50;;;15.10;100.00
30421;BME280;17218;54.070;10.012;2023-05-10T07:50:39;100589.06;;;15.36;100.00
30421;BME280;17218;54.070;10.012;2023-05-10T07:53:05;100596.34;;;15.54;100.00
30421;BME280;17218;54.070;10.012;2023-05-10T07:55:32;100598.28;;;15.76;100.00
30421;BME280;17218;54.070;10.012;2023-05-10T07:57:59;100605.41;;;15.70;100.00
30421;BME280;17218;54.070;10.012;2023-05-10T08:00:26;100598.91;;;15.84;100.00
30421;BME280;17218;54.070;10.012;2023-05-10T08:02:54;100594.09;;;15.98;100.00
30421;BME280;17218;54.070;10.012;2023-05-10T08:05:20;100608.59;;;16.09;100.00
30421;BME280;17218;54.070;10.012;2023-05-10T08:07:47;100612.47;;;16.24;100.00
30421;BME280;17218;54.070;10.012;2023-05-10T08:10:14;100616.88;;;16.22;100.00
30421;BME280;17218;54.070;10.012;2023-05-10T08:12:40;100613.91;;;16.33;100.00
30421;BME280;17218;54.070;10.012;2023-05-10T08:15:08;100610.84;;;16.47;100.00
30421;BME280;17218;54.070;10.012;2023-05-10T08:17:35;100611.47;;;16.28;100.00
30421;BME280;17218;54.070;10.012;2023-05-10T08:20:03;100617.50;;;16.30;100.00
30421;BME280;17218;54.070;10.012;2023-05-10T08:22:30;100618.38;;;16.31;100.00
30421;BME280;17218;54.070;10.012;2023-05-10T08:24:56;100611.16;;;16.38;100.00
30421;BME280;17218;54.070;10.012;2023-05-10T08:27:23;100603.75;;;16.51;100.00
30421;BME280;17218;54.070;10.012;2023-05-10T08:29:49;100617.09;;;16.68;100.00
30421;BME280;17218;54.070;10.012;2023-05-10T08:32:16;100602.22;;;16.95;100.00
30421;BME280;17218;54.070;10.012;2023-05-10T08:34:42;100606.44;;;16.99;100.00
30421;BME280;17218;54.070;10.012;2023-05-10T08:37:10;100606.09;;;17.08;100.00
30421;BME280;17218;54.070;10.012;2023-05-10T08:39:38;100613.03;;;16.85;100.00
30421;BME280;17218;54.070;10.012;2023-05-10T08:42:05;100609.25;;;17.18;100.00
30421;BME280;17218;54.070;10.012;2023-05-10T08:44:34;100609.63;;;17.55;100.00
30421;BME280;17218;54.070;10.012;2023-05-10T08:47:04;100606.63;;;17.87;98.01
30421;BME280;17218;54.070;10.012;2023-05-10T08:49:32;100603.34;;;18.27;96.62
30421;BME280;17218;54.070;10.012;2023-05-10T08:52:02;100605.69;;;18.10;89.80
30421;BME280;17218;54.070;10.012;2023-05-10T08:54:31;100610.41;;;18.24;90.33
30421;BME280;17218;54.070;10.012;2023-05-10T08:56:58;100617.50;;;18.22;89.12
30421;BME280;17218;54.070;10.012;2023-05-10T08:59:24;100608.56;;;18.68;87.44
30421;BME280;17218;54.070;10.012;2023-05-10T09:01:52;100606.78;;;18.90;86.67
30421;BME280;17218;54.070;10.012;2023-05-10T09:04:19;100622.66;;;18.87;86.06
30421;BME280;17218;54.070;10.012;2023-05-10T09:06:46;100610.47;;;18.86;86.26
30421;BME280;17218;54.070;10.012;2023-05-10T09:09:12;100611.53;;;19.01;87.17
30421;BME280;17218;54.070;10.012;2023-05-10T09:11:41;100607.13;;;18.82;85.49
30421;BME280;17218;54.070;10.012;2023-05-10T09:14:08;100614.06;;;18.83;88.41
30421;BME280;17218;54.070;10.012;2023-05-10T09:16:34;100619.41;;;19.01;96.89
30421;BME280;17218;54.070;10.012;2023-05-10T09:19:01;100621.19;;;19.21;89.18
30421;BME280;17218;54.070;10.012;2023-05-10T09:21:27;100622.44;;;19.51;83.34
30421;BME280;17218;54.070;10.012;2023-05-10T09:23:54;100626.25;;;19.43;82.42
30421;BME280;17218;54.070;10.012;2023-05-10T09:26:25;100629.13;;;19.39;83.64
30421;BME280;17218;54.070;10.012;2023-05-10T09:28:54;100622.59;;;19.85;79.92
30421;BME280;17218;54.070;10.012;2023-05-10T09:31:21;100619.53;;;19.94;79.21
30421;BME280;17218;54.070;10.012;2023-05-10T09:33:49;100616.44;;;20.03;79.61
30421;BME280;17218;54.070;10.012;2023-05-10T09:36:16;100621.22;;;20.32;80.89
30421;BME280;17218;54.070;10.012;2023-05-10T09:38:46;100625.63;;;20.83;78.88
30421;BME280;17218;54.070;10.012;2023-05-10T09:41:17;100634.63;;;20.79;71.36
30421;BME280;17218;54.070;10.012;2023-05-10T09:43:43;100628.44;;;20.80;71.12
30421;BME280;17218;54.070;10.012;2023-05-10T09:46:11;100640.34;;;20.70;72.09
30421;BME280;17218;54.070;10.012;2023-05-10T09:48:41;100638.75;;;20.49;71.36
30421;BME280;17218;54.070;10.012;2023-05-10T09:51:08;100636.91;;;20.52;69.29
30421;BME280;17218;54.070;10.012;2023-05-10T09:53:35;100645.19;;;20.61;70.46
30421;BME280;17218;54.070;10.012;2023-05-10T09:56:02;100638.50;;;20.72;73.37
30421;BME280;17218;54.070;10.012;2023-05-10T09:58:29;100645.66;;;20.86;70.05
30421;BME280;17218;54.070;10.012;2023-05-10T10:00:55;100642.50;;;20.79;70.32
30421;BME280;17218;54.070;10.012;2023-05-10T10:03:23;100641.69;;;20.61;74.14
30421;BME280;17218;54.070;10.012;2023-05-10T10:05:50;100637.66;;;20.71;71.13
30421;BME280;17218;54.070;10.012;2023-05-10T10:08:18;100643.03;;;21.04;73.14
30421;BME280;17218;54.070;10.012;2023-05-10T10:10:46;100646.13;;;20.94;71.88
30421;BME280;17218;54.070;10.012;2023-05-10T10:13:13;100639.88;;;20.79;73.04
30421;BME280;17218;54.070;10.012;2023-05-10T10:15:39;100645.41;;;20.39;71.23
30421;BME280;17218;54.070;10.012;2023-05-10T10:18:07;100653.78;;;20.12;74.80
30421;BME280;17218;54.070;10.012;2023-05-10T10:20:40;100648.97;;;20.20;77.15
30421;BME280;17218;54.070;10.012;2023-05-10T10:23:07;100649.28;;;20.32;76.30
30421;BME280;17218;54.070;10.012;2023-05-10T10:25:34;100655.53;;;20.29;78.47
30421;BME280;17218;54.070;10.012;2023-05-10T10:28:14;100645.63;;;19.79;79.50
30421;BME280;17218;54.070;10.012;2023-05-10T10:30:43;100652.25;;;19.69;77.06
30421;BME280;17218;54.070;10.012;2023-05-10T10:33:24;100660.56;;;19.60;78.12
30421;BME280;17218;54.070;10.012;2023-05-10T10:35:59;100655.44;;;19.37;81.97
30421;BME280;17218;54.070;10.012;2023-05-10T10:38:35;100659.22;;;19.11;82.63
30421;BME280;17218;54.070;10.012;2023-05-10T10:41:08;100660.06;;;19.11;91.12
30421;BME280;17218;54.070;10.012;2023-05-10T10:43:35;100664.94;;;19.21;87.93
30421;BME280;17218;54.070;10.012;2023-05-10T10:46:14;100661.84;;;19.11;86.19
30421;BME280;17218;54.070;10.012;2023-05-10T10:48:47;100659.38;;;18.87;87.98
30421;BME280;17218;54.070;10.012;2023-05-10T10:51:15;100663.63;;;19.10;89.64
30421;BME280;17218;54.070;10.012;2023-05-10T10:53:42;100665.81;;;19.21;86.53
30421;BME280;17218;54.070;10.012;2023-05-10T10:56:10;100669.63;;;19.33;90.42
30421;BME280;17218;54.070;10.012;2023-05-10T10:58:39;100666.94;;;19.54;86.64
30421;BME280;17218;54.070;10.012;2023-05-10T11:01:14;100661.06;;;19.49;82.33
30421;BME280;17218;54.070;10.012;2023-05-10T11:03:54;100662.06;;;19.65;88.96
30421;BME280;17218;54.070;10.012;2023-05-10T11:06:30;100667.78;;;18.95;87.13
30421;BME280;17218;54.070;10.012;2023-05-10T11:08:57;100675.00;;;18.90;91.39
30421;BME280;17218;54.070;10.012;2023-05-10T11:11:24;100673.97;;;18.52;91.75
30421;BME280;17218;54.070;10.012;2023-05-10T11:13:51;100679.47;;;18.23;98.36
30421;BME280;17218;54.070;10.012;2023-05-10T11:16:18;100689.94;;;18.25;100.00
30421;BME280;17218;54.070;10.012;2023-05-10T11:18:58;100684.63;;;18.27;98.68
30421;BME280;17218;54.070;10.012;2023-05-10T11:21:26;100689.63;;;18.09;100.00
30421;BME280;17218;54.070;10.012;2023-05-10T11:23:56;100698.31;;;17.64;100.00
30421;BME280;17218;54.070;10.012;2023-05-10T11:26:23;100703.00;;;17.56;100.00
30421;BME280;17218;54.070;10.012;2023-05-10T11:28:53;100708.50;;;17.48;100.00
30421;BME280;17218;54.070;10.012;2023-05-10T11:31:22;100711.00;;;17.27;100.00
30421;BME280;17218;54.070;10.012;2023-05-10T11:33:49;100714.19;;;17.12;100.00
30421;BME280;17218;54.070;10.012;2023-05-10T11:36:17;100718.41;;;16.89;100.00
30421;BME280;17218;54.070;10.012;2023-05-10T11:38:44;100720.13;;;16.63;100.00
30421;BME280;17218;54.070;10.012;2023-05-10T11:41:13;100730.84;;;16.82;100.00
30421;BME280;17218;54.070;10.012;2023-05-10T11:43:40;100731.41;;;16.65;100.00
30421;BME280;17218;54.070;10.012;2023-05-10T11:46:07;100735.25;;;16.54;100.00
30421;BME280;17218;54.070;10.012;2023-05-10T11:48:36;100737.38;;;16.68;100.00
30421;BME280;17218;54.070;10.012;2023-05-10T11:51:02;100739.34;;;16.62;100.00
30421;BME280;17218;54.070;10.012;2023-05-10T11:53:31;100743.22;;;16.77;100.00
30421;BME280;17218;54.070;10.012;2023-05-10T11:56:02;100749.50;;;16.44;100.00
30421;BME280;17218;54.070;10.012;2023-05-10T11:58:32;100753.19;;;16.38;100.00
30421;BME280;17218;54.070;10.012;2023-05-10T12:00:59;100755.44;;;16.49;100.00
30421;BME280;17218;54.070;10.012;2023-05-10T12:03:25;100769.75;;;16.37;100.00
30421;BME280;17218;54.070;10.012;2023-05-10T12:05:53;100772.56;;;16.31;100.00
30421;BME280;17218;54.070;10.012;2023-05-10T12:08:21;100770.25;;;16.21;100.00
30421;BME280;17218;54.070;10.012;2023-05-10T12:10:48;100775.00;;;15.77;100.00
30421;BME280;17218;54.070;10.012;2023-05-10T12:13:15;100782.94;;;16.04;100.00
30421;BME280;17218;54.070;10.012;2023-05-10T12:15:43;100786.91;;;15.85;100.00
30421;BME280;17218;54.070;10.012;2023-05-10T12:18:10;100795.72;;;15.83;100.00
30421;BME280;17218;54.070;10.012;2023-05-10T12:20:38;100787.31;;;15.71;100.00
30421;BME280;17218;54.070;10.012;2023-05-10T12:23:05;100794.59;;;15.92;100.00
30421;BME280;17218;54.070;10.012;2023-05-10T12:25:33;100791.97;;;15.92;100.00
30421;BME280;17218;54.070;10.012;2023-05-10T12:28:03;100787.69;;;15.89;100.00
30421;BME280;17218;54.070;10.012;2023-05-10T12:30:31;100791.28;;;16.17;100.00
30421;BME280;17218;54.070;10.012;2023-05-10T12:33:06;100795.25;;;16.30;100.00
30421;BME280;17218;54.070;10.012;2023-05-10T12:35:33;100793.03;;;16.16;100.00
30421;BME280;17218;54.070;10.012;2023-05-10T12:38:24;100796.28;;;16.25;100.00
30421;BME280;17218;54.070;10.012;2023-05-10T12:40:51;100798.03;;;16.53;100.00
30421;BME280;17218;54.070;10.012;2023-05-10T12:43:17;100799.22;;;16.42;100.00
30421;BME280;17218;54.070;10.012;2023-05-10T12:45:44;100805.69;;;16.30;100.00